Time;durP1;ratioP1;P1;durP2;ratioP2;P2;SDS_P1;SDS_P2;PMS_P1;PMS_P2;Temp;Humidity;BMP_temperature;BMP_pressure;BME280_temperature;BME280_humidity;BME280_pressure;Samples;Min_cycle;Max_cycle;Signal;HPM_P1;HPM_P2
2022/08/31 00:04:08;;;;;;;6.90;3.90;;;;;;;17.53;100.00;100896.44;109070;1270;22255;-81
2022/08/31 00:07:53;;;;;;;;;;;;;;;;;;;;;
2022/08/31 00:11:17;;;;;;;7.70;3.90;;;;;;;17.48;100.00;100890.57;108992;1268;22001;-80
2022/08/31 00:14:29;;;;;;;9.00;3.70;;;;;;;17.46;100.00;100889.34;109493;1264;21983;-81
2022/08/31 00:20:56;;;;;;;7.40;4.40;;;;;;;17.46;100.00;100891.23;108943;1273;21998;-80
2022/08/31 00:24:13;;;;;;;5.30;4.10;;;;;;;17.43;100.00;100897.46;108795;1273;21981;-79
2022/08/31 00:27:05;;;;;;;5.90;4.30;;;;;;;17.41;100.00;100899.55;108532;1273;21996;-81
2022/08/31 00:30:22;;;;;;;;;;;;;;;;;;;;;
2022/08/31 00:33:13;;;;;;;6.10;3.40;;;;;;;17.37;100.00;100899.08;108601;1279;21991;-79
2022/08/31 00:36:24;;;;;;;7.20;3.00;;;;;;;17.33;100.00;100897.99;108589;1276;22000;-80
2022/08/31 00:39:31;;;;;;;5.40;3.40;;;;;;;17.31;100.00;100903.45;108669;1271;21982;-80
2022/08/31 00:42:47;;;;;;;6.50;3.00;;;;;;;17.29;100.00;100909.39;108911;1270;23686;-79
2022/08/31 00:45:55;;;;;;;5.00;2.90;;;;;;;17.27;100.00;100910.95;109155;1270;21965;-80
2022/08/31 00:49:15;;;;;;;5.40;3.70;;;;;;;17.22;100.00;100909.52;109232;1268;21973;-80
2022/08/31 00:52:40;;;;;;;4.10;3.10;;;;;;;17.17;100.00;100904.86;108779;1273;22780;-80
2022/08/31 00:55:41;;;;;;;5.80;3.00;;;;;;;17.14;100.00;100904.18;108934;1273;21985;-79
2022/08/31 00:58:34;;;;;;;7.20;3.20;;;;;;;17.13;100.00;100905.08;108544;1279;22046;-80
2022/08/31 01:01:38;;;;;;;5.30;3.20;;;;;;;17.10;100.00;100909.50;108328;1280;23032;-80
2022/08/31 01:04:21;;;;;;;3.40;3.10;;;;;;;17.08;100.00;100908.70;108288;1279;22441;-79
2022/08/31 01:07:16;;;;;;;7.10;3.20;;;;;;;17.05;100.00;100906.93;108372;1279;21986;-80
2022/08/31 01:10:01;;;;;;;7.80;3.90;;;;;;;17.03;100.00;100908.80;108113;1282;23602;-80
2022/08/31 01:13:28;;;;;;;5.70;3.40;;;;;;;17.01;100.00;100908.30;108103;1282;22006;-81
2022/08/31 01:16:42;;;;;;;5.50;3.20;;;;;;;16.99;100.00;100902.70;108283;1279;23592;-81
2022/08/31 01:20:03;;;;;;;3.20;2.60;;;;;;;16.97;100.00;100903.59;107925;1285;24493;-81
2022/08/31 01:23:31;;;;;;;4.80;3.00;;;;;;;16.93;100.00;100908.66;108015;1283;22002;-80
2022/08/31 01:26:31;;;;;;;;;;;;;;;;;;;;;
2022/08/31 01:29:23;;;;;;;5.80;3.10;;;;;;;16.86;100.00;100900.82;107986;1285;23082;-81
2022/08/31 01:32:59;;;;;;;6.30;3.40;;;;;;;16.85;100.00;100901.27;107721;1289;21996;-81
2022/08/31 01:36:04;;;;;;;3.40;2.60;;;;;;;16.84;100.00;100902.48;107716;1289;23076;-81
2022/08/31 01:39:39;;;;;;;3.90;3.10;;;;;;;16.81;100.00;100903.00;108282;1282;22015;-82
2022/08/31 01:42:53;;;;;;;3.40;2.70;;;;;;;16.81;100.00;100899.02;108070;1282;23066;-81
2022/08/31 01:46:02;;;;;;;6.40;3.50;;;;;;;16.83;100.00;100904.08;107981;1282;22000;-80
2022/08/31 01:49:10;;;;;;;3.70;2.90;;;;;;;16.85;100.00;100903.81;108323;1282;22857;-81
2022/08/31 01:51:55;;;;;;;5.40;3.10;;;;;;;16.87;100.00;100903.95;107725;1288;22556;-82
2022/08/31 01:54:50;;;;;;;6.80;3.30;;;;;;;16.86;100.00;100906.48;107359;1287;22997;-80
2022/08/31 01:58:07;;;;;;;5.20;3.20;;;;;;;16.84;100.00;100909.30;107785;1282;22782;-78
2022/08/31 02:01:16;;;;;;;7.50;3.20;;;;;;;16.80;100.00;100905.46;107921;1282;24309;-80
2022/08/31 02:04:26;;;;;;;5.30;3.40;;;;;;;16.78;100.00;100905.44;108020;1283;21985;-80
2022/08/31 02:07:28;;;;;;;6.50;3.60;;;;;;;16.74;100.00;100908.23;107527;1289;22217;-79
2022/08/31 02:10:30;;;;;;;4.30;3.70;;;;;;;16.70;100.00;100902.08;107731;1289;22081;-80
2022/08/31 02:13:39;;;;;;;4.80;3.20;;;;;;;16.68;100.00;100903.41;107766;1289;23046;-80
2022/08/31 02:16:22;;;;;;;6.60;3.50;;;;;;;16.67;100.00;100904.48;107843;1282;22797;-81
2022/08/31 02:19:57;;;;;;;6.50;3.10;;;;;;;16.63;100.00;100906.71;108233;1282;22003;-80
2022/08/31 02:23:04;;;;;;;;;;;;;;;;;;;;;
2022/08/31 02:25:44;;;;;;;10.30;3.60;;;;;;;16.59;100.00;100903.76;108477;1274;21998;-81
2022/08/31 02:28:40;;;;;;;5.70;3.10;;;;;;;16.58;100.00;100908.99;108799;1270;22237;-80
2022/08/31 02:31:30;;;;;;;4.10;3.00;;;;;;;16.56;100.00;100909.39;108725;1273;22403;-80
2022/08/31 02:34:28;;;;;;;4.30;2.90;;;;;;;16.53;100.00;100910.89;108786;1270;23634;-80
2022/08/31 02:37:35;;;;;;;3.10;2.20;;;;;;;16.49;100.00;100908.12;108652;1278;21983;-80
2022/08/31 02:40:37;;;;;;;3.60;2.50;;;;;;;16.47;100.00;100908.42;108581;1276;22001;-81
2022/08/31 02:43:39;;;;;;;4.50;2.70;;;;;;;16.44;100.00;100907.34;108593;1276;22125;-80
2022/08/31 02:46:29;;;;;;;7.50;2.80;;;;;;;16.42;100.00;100904.43;108659;1275;22003;-80
2022/08/31 02:50:05;;;;;;;6.50;2.80;;;;;;;16.39;100.00;100904.92;108678;1275;21975;-80
2022/08/31 02:53:05;;;;;;;4.50;2.80;;;;;;;16.38;100.00;100901.77;108745;1276;22101;-79
2022/08/31 02:55:54;;;;;;;4.90;3.60;;;;;;;16.38;100.00;100897.64;108751;1273;22064;-81
2022/08/31 02:58:39;;;;;;;6.20;3.70;;;;;;;16.37;100.00;100895.84;108702;1273;22080;-79
2022/08/31 03:01:15;;;;;;;5.90;3.00;;;;;;;16.33;100.00;100895.06;108402;1279;21958;-80
2022/08/31 03:04:17;;;;;;;4.40;2.70;;;;;;;16.29;100.00;100898.23;108956;1273;22731;-80
2022/08/31 03:07:05;;;;;;;7.20;2.50;;;;;;;16.22;100.00;100897.17;108878;1273;21995;-80
2022/08/31 03:10:15;;;;;;;5.90;3.30;;;;;;;16.12;100.00;100893.31;108915;1273;24393;-80
2022/08/31 03:12:58;;;;;;;6.60;2.90;;;;;;;16.06;100.00;100897.92;108925;1273;22024;-78
2022/08/31 03:15:59;;;;;;;6.60;3.70;;;;;;;16.00;100.00;100898.61;108728;1273;21985;-78
2022/08/31 03:18:38;;;;;;;4.90;2.80;;;;;;;15.98;100.00;100895.64;108302;1279;22000;-78
2022/08/31 03:21:44;;;;;;;5.70;2.90;;;;;;;15.94;100.00;100896.51;108238;1279;24469;-79
2022/08/31 03:24:39;;;;;;;4.70;2.90;;;;;;;15.88;100.00;100898.30;108341;1279;22881;-79
2022/08/31 03:27:30;;;;;;;10.20;3.80;;;;;;;15.81;100.00;100898.46;108670;1273;21984;-79
2022/08/31 03:30:23;;;;;;;4.30;2.60;;;;;;;15.76;100.00;100904.51;108585;1277;23190;-79
2022/08/31 03:33:11;;;;;;;8.00;3.80;;;;;;;15.69;100.00;100909.47;108465;1277;22768;-79
2022/08/31 03:36:14;;;;;;;5.60;3.10;;;;;;;15.65;100.00;100911.95;108128;1279;22300;-80
2022/08/31 03:39:17;;;;;;;4.80;2.80;;;;;;;15.61;100.00;100912.87;108550;1276;23617;-79
2022/08/31 03:42:17;;;;;;;13.00;3.80;;;;;;;15.56;100.00;100915.92;108514;1279;22008;-78
2022/08/31 03:45:32;;;;;;;5.50;3.50;;;;;;;15.54;100.00;100919.65;108416;1276;22003;-80
2022/08/31 03:48:36;;;;;;;;;;;;;;;;;;;;;
2022/08/31 03:51:58;;;;;;;7.90;4.30;;;;;;;15.52;100.00;100917.37;108615;1273;22003;-80
2022/08/31 03:55:41;;;;;;;5.90;4.10;;;;;;;15.52;100.00;100913.47;108835;1272;23181;-78
2022/08/31 04:02:13;;;;;;;5.30;3.00;;;;;;;15.49;100.00;100919.16;108346;1276;23084;-79
2022/08/31 04:05:25;;;;;;;5.80;3.50;;;;;;;15.46;100.00;100920.97;108137;1277;23079;-79
2022/08/31 04:09:15;;;;;;;5.90;3.00;;;;;;;15.42;100.00;100925.83;108479;1276;21997;-80
2022/08/31 04:12:14;;;;;;;6.00;3.10;;;;;;;15.40;100.00;100928.38;108344;1277;22820;-78
2022/08/31 04:15:22;;;;;;;7.40;3.70;;;;;;;15.39;100.00;100929.98;108235;1283;22165;-79
2022/08/31 04:19:13;;;;;;;;;;;;;;;;;;;;;
2022/08/31 04:22:09;;;;;;;6.30;3.30;;;;;;;15.38;100.00;100929.96;107806;1287;21969;-79
2022/08/31 04:25:25;;;;;;;5.90;3.70;;;;;;;15.40;100.00;100935.27;107484;1288;22241;-78
2022/08/31 04:28:30;;;;;;;6.80;3.60;;;;;;;15.44;100.00;100936.38;107610;1287;22009;-79
2022/08/31 04:31:52;;;;;;;7.50;3.70;;;;;;;15.45;100.00;100942.79;107727;1288;22037;-82
2022/08/31 04:34:40;;;;;;;5.60;3.70;;;;;;;15.47;100.00;100945.10;108956;1273;21999;-83
2022/08/31 04:41:25;;;;;;;5.80;3.50;;;;;;;15.52;100.00;100944.93;109039;1270;21979;-83
2022/08/31 04:44:27;;;;;;;5.90;3.80;;;;;;;15.57;100.00;100946.74;109077;1270;22043;-82
2022/08/31 04:47:36;;;;;;;7.00;3.70;;;;;;;15.58;100.00;100945.20;108757;1279;22043;-80
2022/08/31 04:50:22;;;;;;;9.20;3.30;;;;;;;15.61;100.00;100944.22;108370;1283;23732;-82
2022/08/31 04:53:36;;;;;;;4.00;3.30;;;;;;;15.64;100.00;100940.83;108013;1288;23579;-81
2022/08/31 04:56:44;;;;;;;6.10;3.40;;;;;;;15.70;100.00;100942.74;107233;1293;22021;-80
2022/08/31 04:59:49;;;;;;;5.10;2.80;;;;;;;15.74;100.00;100947.23;106997;1294;23037;-83
2022/08/31 05:03:03;;;;;;;5.10;3.00;;;;;;;15.78;100.00;100954.08;107297;1294;22872;-81
2022/08/31 05:06:00;;;;;;;7.40;3.60;;;;;;;15.84;100.00;100953.44;107565;1289;23088;-80
2022/08/31 05:09:30;;;;;;;;;;;;;;;;;;;;;
2022/08/31 05:13:08;;;;;;;;;;;;;;;;;;;;;
2022/08/31 05:16:18;;;;;;;;;;;;;;;;;;;;;
2022/08/31 05:23:16;;;;;;;6.00;3.20;;;;;;;16.03;100.00;100955.61;109284;1270;22070;-82
2022/08/31 05:26:38;;;;;;;11.60;4.30;;;;;;;16.01;100.00;100952.56;109215;1270;21975;-81
2022/08/31 05:30:14;;;;;;;8.70;4.10;;;;;;;15.97;100.00;100954.41;107760;1268;21990;-80
2022/08/31 05:34:14;;;;;;;8.80;3.60;;;;;;;15.99;100.00;100956.52;108834;1274;22050;-82
2022/08/31 05:37:25;;;;;;;6.90;5.70;;;;;;;16.02;100.00;100955.74;108855;1273;24470;-79
2022/08/31 05:40:16;;;;;;;11.90;6.50;;;;;;;16.07;100.00;100957.67;108628;1270;22005;-80
2022/08/31 05:43:45;;;;;;;;;;;;;;;;;;;;;
2022/08/31 05:47:00;;;;;;;8.90;7.90;;;;;;;16.17;100.00;100964.25;109025;1270;23703;-78
2022/08/31 05:50:19;;;;;;;15.10;13.60;;;;;;;16.23;100.00;100968.75;109002;1270;23076;-78
2022/08/31 05:52:50;;;;;;;8.10;7.40;;;;;;;16.33;100.00;100970.97;108698;1270;24138;-80
2022/08/31 05:55:20;;;;;;;8.60;6.80;;;;;;;16.44;100.00;100974.00;108734;1272;22011;-78
2022/08/31 05:57:51;;;;;;;12.30;7.90;;;;;;;16.58;100.00;100975.84;108285;1276;21994;-78
2022/08/31 06:00:21;;;;;;;13.30;6.70;;;;;;;16.71;100.00;100978.00;108362;1276;22092;-78
2022/08/31 06:02:54;;;;;;;7.90;6.00;;;;;;;16.85;100.00;100979.25;108207;1276;23055;-77
2022/08/31 06:05:25;;;;;;;8.90;3.60;;;;;;;17.03;100.00;100981.41;108516;1270;23740;-77
2022/08/31 06:07:55;;;;;;;9.00;7.00;;;;;;;17.25;100.00;100986.98;108387;1277;21989;-78
2022/08/31 06:10:25;;;;;;;8.00;4.90;;;;;;;17.51;100.00;100986.83;108329;1277;22456;-77
2022/08/31 06:12:55;;;;;;;9.40;8.40;;;;;;;17.80;100.00;100993.44;108301;1276;22857;-76
2022/08/31 06:15:24;;;;;;;7.30;3.80;;;;;;;18.06;100.00;100996.66;108366;1273;24359;-77
2022/08/31 06:17:54;;;;;;;10.40;4.80;;;;;;;18.25;100.00;101000.95;108227;1276;23641;-78
2022/08/31 06:20:25;;;;;;;13.10;6.80;;;;;;;18.42;100.00;101003.48;108001;1283;22047;-77
2022/08/31 06:22:55;;;;;;;6.60;4.00;;;;;;;18.56;100.00;101006.31;108053;1282;22233;-77
2022/08/31 06:25:40;;;;;;;11.20;3.10;;;;;;;18.67;100.00;101002.09;108157;1273;22450;-78
2022/08/31 06:28:13;;;;;;;5.10;3.20;;;;;;;18.72;100.00;101002.15;108410;1276;22344;-78
2022/08/31 06:30:44;;;;;;;8.40;3.50;;;;;;;18.73;100.00;101006.14;108349;1276;23816;-78
2022/08/31 06:33:24;;;;;;;7.00;4.00;;;;;;;18.75;100.00;101002.31;108488;1273;21983;-78
2022/08/31 06:36:09;;;;;;;7.80;3.90;;;;;;;18.88;100.00;101007.84;108410;1276;23726;-77
2022/08/31 06:38:58;;;;;;;7.20;6.10;;;;;;;19.17;100.00;101008.10;108665;1270;22984;-76
2022/08/31 06:41:44;;;;;;;8.20;3.50;;;;;;;19.55;100.00;101007.33;108809;1265;21986;-77
2022/08/31 06:44:36;;;;;;;6.20;3.80;;;;;;;19.92;100.00;101009.56;109523;1264;23771;-77
2022/08/31 06:47:30;;;;;;;11.40;3.90;;;;;;;20.31;100.00;101008.98;109116;1263;23074;-79
2022/08/31 06:50:03;;;;;;;9.90;4.50;;;;;;;20.57;100.00;101006.02;109231;1263;22300;-77
2022/08/31 06:52:35;;;;;;;6.00;3.20;;;;;;;20.94;100.00;101010.06;109560;1264;21972;-77
2022/08/31 06:55:25;;;;;;;5.90;3.00;;;;;;;21.36;100.00;101016.58;109403;1263;22043;-76
2022/08/31 06:58:15;;;;;;;7.80;3.20;;;;;;;21.70;100.00;101019.61;109406;1264;22439;-77
2022/08/31 07:01:27;;;;;;;5.80;3.30;;;;;;;22.01;100.00;101015.58;108810;1270;23087;-77
2022/08/31 07:04:20;;;;;;;6.30;3.50;;;;;;;22.31;100.00;101014.36;108702;1272;24936;-78
2022/08/31 07:06:52;;;;;;;7.40;3.50;;;;;;;22.51;100.00;101017.34;108744;1270;23602;-77
2022/08/31 07:09:24;;;;;;;7.80;2.90;;;;;;;22.57;100.00;101016.05;108666;1270;21993;-79
2022/08/31 07:11:54;;;;;;;4.60;2.20;;;;;;;22.53;100.00;101018.85;108816;1271;21990;-78
2022/08/31 07:14:27;;;;;;;6.40;2.20;;;;;;;22.45;100.00;101017.42;108321;1276;22025;-78
2022/08/31 07:17:01;;;;;;;3.60;1.80;;;;;;;22.58;100.00;101022.46;108363;1276;21982;-77
2022/08/31 07:19:34;;;;;;;5.70;2.80;;;;;;;22.79;100.00;101025.52;108061;1282;21988;-78
2022/08/31 07:22:08;;;;;;;;;;;;;;;23.07;100.00;101026.65;108244;1282;22011;-77
2022/08/31 07:24:44;;;;;;;5.50;2.80;;;;;;;23.30;100.00;101029.70;108219;1282;21993;-78
2022/08/31 07:27:17;;;;;;;4.40;2.70;;;;;;;23.53;100.00;101029.73;107573;1288;23751;-79
2022/08/31 07:30:08;;;;;;;6.80;2.20;;;;;;;23.75;100.00;101033.23;107596;1288;23636;-78
2022/08/31 07:32:51;;;;;;;5.30;2.30;;;;;;;23.84;100.00;101035.20;107504;1288;22140;-78
2022/08/31 07:35:30;;;;;;;4.90;1.90;;;;;;;23.89;100.00;101037.83;107721;1288;22931;-80
2022/08/31 07:44:52;;;;;;;4.80;1.50;;;;;;;24.29;100.00;101041.78;108395;1276;22039;-80
2022/08/31 07:48:09;;;;;;;5.00;1.50;;;;;;;24.49;100.00;101040.66;108710;1273;22024;-80
2022/08/31 07:51:56;;;;;;;3.80;1.70;;;;;;;24.49;100.00;101043.35;108741;1273;21989;-80
2022/08/31 07:56:10;;;;;;;;;;;;;;;;;;;;;
2022/08/31 07:58:57;;;;;;;3.00;1.70;;;;;;;24.32;100.00;101048.11;107414;1288;22475;-82
2022/08/31 08:02:17;;;;;;;5.10;2.40;;;;;;;23.93;100.00;101050.44;107887;1283;23189;-82
2022/08/31 08:05:01;;;;;;;8.20;2.30;;;;;;;23.53;100.00;101048.19;108060;1285;21994;-79
2022/08/31 08:08:04;;;;;;;4.00;1.50;;;;;;;23.37;100.00;101045.44;108057;1284;22090;-81
2022/08/31 08:11:06;;;;;;;;;;;;;;;23.35;100.00;101038.88;107851;1285;23102;-83
2022/08/31 08:14:02;;;;;;;3.80;1.50;;;;;;;23.55;100.00;101039.42;107999;1282;22116;-79
2022/08/31 08:17:07;;;;;;;6.10;1.90;;;;;;;23.89;100.00;101041.77;108310;1281;22279;-80
2022/08/31 08:19:53;;;;;;;3.40;1.50;;;;;;;24.09;100.00;101043.20;107894;1280;23162;-80
2022/08/31 08:22:25;;;;;;;3.70;1.60;;;;;;;24.18;100.00;101047.52;108372;1276;23101;-81
2022/08/31 08:25:54;;;;;;;4.90;1.30;;;;;;;24.12;100.00;101046.00;108192;1280;23074;-80
2022/08/31 08:28:41;;;;;;;3.20;2.10;;;;;;;24.09;100.00;101041.58;108364;1282;22008;-79
2022/08/31 08:31:27;;;;;;;7.60;1.70;;;;;;;24.23;100.00;101043.95;108650;1276;22006;-80
2022/08/31 08:33:57;;;;;;;4.50;1.40;;;;;;;24.36;100.00;101047.30;108275;1279;22057;-78
2022/08/31 08:36:39;;;;;;;2.80;1.40;;;;;;;24.36;100.00;101045.14;107943;1279;21991;-78
2022/08/31 08:39:10;;;;;;;5.90;1.40;;;;;;;24.40;100.00;101041.98;108083;1279;24521;-78
2022/08/31 08:41:56;;;;;;;2.50;1.60;;;;;;;24.37;100.00;101039.84;107794;1283;22032;-78
2022/08/31 08:44:34;;;;;;;3.60;1.00;;;;;;;24.29;100.00;101035.91;107319;1289;22014;-79
2022/08/31 08:47:27;;;;;;;4.70;1.00;;;;;;;24.24;100.00;101036.66;107251;1289;23843;-77
2022/08/31 08:50:07;;;;;;;4.70;1.10;;;;;;;24.31;100.00;101037.23;107054;1293;22020;-79
2022/08/31 08:52:54;;;;;;;;;;;;;;;;;;;;;
2022/08/31 08:55:36;;;;;;;1.70;0.60;;;;;;;24.64;100.00;101044.65;107622;1285;22081;-78
2022/08/31 08:58:12;;;;;;;6.70;0.90;;;;;;;24.55;100.00;101045.79;107853;1288;22778;-79
2022/08/31 09:00:57;;;;;;;2.00;1.00;;;;;;;24.47;100.00;101040.52;107873;1279;23626;-79
2022/08/31 09:04:18;;;;;;;2.70;1.30;;;;;;;24.48;100.00;101037.14;108246;1279;21997;-80
2022/08/31 09:08:00;;;;;;;2.60;1.00;;;;;;;24.57;100.00;101035.73;108207;1279;23392;-79
2022/08/31 09:11:05;;;;;;;2.60;1.30;;;;;;;24.61;100.00;101034.98;109034;1270;22008;-77
2022/08/31 09:14:37;;;;;;;2.90;1.00;;;;;;;24.66;100.00;101030.20;109142;1268;21997;-81
2022/08/31 09:17:42;;;;;;;2.20;0.80;;;;;;;24.58;100.00;101036.66;108893;1267;21994;-80
2022/08/31 09:20:20;;;;;;;3.80;1.50;;;;;;;24.62;100.00;101032.73;108857;1274;23584;-80
2022/08/31 09:23:03;;;;;;;5.60;1.30;;;;;;;24.77;100.00;101028.91;108757;1273;22050;-81
2022/08/31 09:25:57;;;;;;;3.00;1.80;;;;;;;24.86;100.00;101032.05;108656;1274;21985;-81
2022/08/31 09:28:53;;;;;;;3.00;1.40;;;;;;;24.86;100.00;101030.64;108426;1277;21995;-80
2022/08/31 09:31:43;;;;;;;2.10;1.20;;;;;;;24.61;100.00;101031.50;108088;1285;22001;-79
2022/08/31 09:34:41;;;;;;;4.00;1.90;;;;;;;24.36;100.00;101028.25;108111;1282;22104;-80
2022/08/31 09:37:53;;;;;;;2.40;0.90;;;;;;;24.21;100.00;101026.62;108171;1279;22063;-81
2022/08/31 09:40:50;;;;;;;3.70;1.00;;;;;;;24.08;100.00;101024.45;108273;1280;22004;-80
2022/08/31 09:44:49;;;;;;;3.80;1.10;;;;;;;23.69;100.00;101021.31;107981;1285;22602;-81
2022/08/31 09:48:50;;;;;;;3.00;1.10;;;;;;;23.31;100.00;101017.65;108267;1281;23607;-81
2022/08/31 09:51:39;;;;;;;1.60;0.60;;;;;;;23.42;100.00;101018.18;108300;1282;23003;-81
2022/08/31 09:55:27;;;;;;;;;;;;;;;;;;;;;
2022/08/31 09:58:28;;;;;;;4.70;1.30;;;;;;;23.61;100.00;101015.45;108075;1282;23220;-80
2022/08/31 10:01:49;;;;;;;3.60;0.80;;;;;;;23.86;100.00;101016.03;108467;1276;21987;-80
2022/08/31 10:04:53;;;;;;;2.90;1.00;;;;;;;24.31;100.00;101020.88;108496;1279;22007;-81
2022/08/31 10:08:22;;;;;;;;;;;;;;;;;;;;;
2022/08/31 10:12:19;;;;;;;;;;;;;;;;;;;;;
2022/08/31 10:15:54;;;;;;;4.50;2.00;;;;;;;23.62;100.00;101010.77;108767;1270;23088;-81
2022/08/31 10:20:04;;;;;;;;;;;;;;;;;;;;;
2022/08/31 10:23:36;;;;;;;;;;;;;;;;;;;;;
2022/08/31 10:27:12;;;;;;;;;;;;;;;;;;;;;
2022/08/31 10:30:41;;;;;;;3.00;1.10;;;;;;;24.01;100.00;101005.67;108890;1279;22002;-83
2022/08/31 10:37:30;;;;;;;2.90;1.20;;;;;;;23.76;100.00;101007.45;108658;1273;21985;-81
2022/08/31 10:40:53;;;;;;;6.20;1.10;;;;;;;23.37;100.00;101006.83;108402;1276;21998;-82
2022/08/31 10:44:44;;;;;;;2.10;0.70;;;;;;;22.95;100.00;101003.13;108521;1276;22003;-81
2022/08/31 10:48:07;;;;;;;;;;;;;;;;;;;;;
2022/08/31 10:52:05;;;;;;;5.10;3.60;;;;;;;22.39;100.00;100991.48;108281;1276;22099;-81
2022/08/31 10:55:18;;;;;;;3.40;1.20;;;;;;;22.39;100.00;100983.16;108609;1276;22008;-82
2022/08/31 10:58:56;;;;;;;39.30;4.50;;;;;;;22.48;100.00;100981.02;108231;1282;22008;-81
2022/08/31 11:03:11;;;;;;;8.60;1.10;;;;;;;22.61;100.00;100982.55;108319;1283;23040;-81
2022/08/31 11:06:23;;;;;;;5.60;1.50;;;;;;;22.69;100.00;100980.86;108535;1273;21985;-81
2022/08/31 11:09:38;;;;;;;2.20;1.00;;;;;;;22.60;100.00;100982.83;108850;1273;21993;-80
2022/08/31 11:12:17;;;;;;;2.80;0.80;;;;;;;22.51;100.00;100981.42;108584;1279;22019;-83
2022/08/31 11:15:21;;;;;;;1.40;0.70;;;;;;;22.43;100.00;100983.27;108567;1276;22035;-84
2022/08/31 11:18:38;;;;;;;1.20;0.80;;;;;;;22.23;100.00;100978.58;108666;1279;23758;-84
2022/08/31 11:21:44;;;;;;;2.40;0.90;;;;;;;22.09;100.00;100975.98;108716;1276;23069;-85
2022/08/31 11:25:11;;;;;;;2.10;1.10;;;;;;;22.15;100.00;100977.55;108691;1279;22484;-82
2022/08/31 11:28:05;;;;;;;4.60;1.20;;;;;;;22.23;100.00;100972.88;108335;1279;23084;-81
2022/08/31 11:31:07;;;;;;;2.90;1.20;;;;;;;22.32;100.00;100967.44;108588;1274;22008;-82
2022/08/31 11:33:53;;;;;;;6.60;1.00;;;;;;;22.41;100.00;100964.48;108981;1273;21996;-84
2022/08/31 11:37:06;;;;;;;4.30;0.70;;;;;;;22.50;100.00;100962.23;109422;1264;22783;-81
2022/08/31 11:39:55;;;;;;;2.00;0.90;;;;;;;22.43;100.00;100966.41;109172;1267;21998;-81
2022/08/31 11:42:36;;;;;;;2.70;1.10;;;;;;;22.31;100.00;100964.61;109058;1270;22721;-80
2022/08/31 11:45:30;;;;;;;5.00;1.00;;;;;;;22.20;100.00;100963.10;108744;1273;21987;-80
2022/08/31 11:48:28;;;;;;;6.00;0.90;;;;;;;22.09;100.00;100964.35;108792;1273;22013;-81
2022/08/31 11:51:14;;;;;;;2.40;1.00;;;;;;;21.96;99.96;100965.16;108296;1279;22397;-81
2022/08/31 11:54:15;;;;;;;3.60;0.80;;;;;;;21.89;99.38;100963.02;107908;1284;22170;-82
2022/08/31 11:57:05;;;;;;;1.70;0.80;;;;;;;21.91;99.66;100960.48;107566;1288;22001;-81
2022/08/31 12:00:04;;;;;;;1.90;1.00;;;;;;;21.95;99.95;100959.05;107840;1287;22937;-81
2022/08/31 12:03:42;;;;;;;1.60;0.80;;;;;;;22.01;98.68;100947.73;107877;1285;24332;-81
2022/08/31 12:07:11;;;;;;;4.10;1.00;;;;;;;22.08;93.15;100946.93;107585;1289;22008;-83
2022/08/31 12:10:38;;;;;;;2.60;1.20;;;;;;;22.14;91.64;100945.66;107808;1286;21991;-82
2022/08/31 12:13:29;;;;;;;2.50;0.70;;;;;;;22.18;92.51;100942.48;108247;1281;22667;-81
2022/08/31 12:16:25;;;;;;;1.90;0.70;;;;;;;22.24;94.68;100940.98;108663;1276;21999;-81
2022/08/31 12:23:33;;;;;;;2.00;1.00;;;;;;;22.41;95.64;100941.19;108701;1276;22438;-80
2022/08/31 12:26:35;;;;;;;;;;;;;;;;;;;;;
2022/08/31 12:29:45;;;;;;;4.50;1.30;;;;;;;22.46;97.57;100937.92;108989;1270;22373;-79
2022/08/31 12:32:31;;;;;;;2.50;0.90;;;;;;;22.53;98.77;100930.48;108690;1273;21989;-82
2022/08/31 12:35:27;;;;;;;1.90;0.90;;;;;;;22.59;99.75;100927.77;108771;1274;23021;-81
2022/08/31 12:38:19;;;;;;;3.50;1.00;;;;;;;22.60;98.93;100932.20;108598;1276;22381;-81
2022/08/31 12:40:53;;;;;;;4.50;1.30;;;;;;;22.58;99.38;100933.77;108567;1279;22002;-80
2022/08/31 12:44:03;;;;;;;4.20;1.50;;;;;;;22.55;99.39;100932.16;108118;1279;22066;-80
2022/08/31 12:47:32;;;;;;;2.20;1.30;;;;;;;22.41;97.79;100934.83;108296;1279;22930;-80
2022/08/31 12:50:45;;;;;;;2.50;0.90;;;;;;;22.25;98.59;100931.64;108645;1276;23000;-82
2022/08/31 12:54:21;;;;;;;2.70;0.80;;;;;;;22.18;99.92;100933.62;108321;1282;22082;-80
2022/08/31 12:58:29;;;;;;;2.00;1.00;;;;;;;22.06;99.99;100928.59;108314;1282;23364;-79
2022/08/31 13:01:11;;;;;;;5.80;1.20;;;;;;;21.99;99.96;100926.26;108419;1279;23109;-81
2022/08/31 13:03:47;;;;;;;1.70;0.70;;;;;;;22.00;99.96;100926.77;108231;1283;22044;-80
2022/08/31 13:06:26;;;;;;;;;;;;;;;22.01;99.49;100920.60;108223;1283;22000;-78
2022/08/31 13:08:57;;;;;;;3.60;1.20;;;;;;;21.96;99.20;100925.27;108027;1283;22003;-80
2022/08/31 13:11:43;;;;;;;5.10;1.10;;;;;;;21.98;99.91;100923.75;108243;1282;22056;-81
2022/08/31 13:14:28;;;;;;;1.60;0.60;;;;;;;21.99;100.00;100922.65;107970;1285;23603;-83
2022/08/31 13:17:22;;;;;;;3.90;1.00;;;;;;;21.97;100.00;100924.38;108132;1283;22003;-78
2022/08/31 13:19:57;;;;;;;2.10;0.80;;;;;;;21.94;100.00;100920.44;107747;1283;22010;-83
2022/08/31 13:22:38;;;;;;;2.50;1.60;;;;;;;21.97;100.00;100921.91;108289;1279;22694;-77
2022/08/31 13:25:25;;;;;;;1.40;0.80;;;;;;;21.97;98.95;100928.64;108113;1279;23065;-79
2022/08/31 13:28:12;;;;;;;1.90;0.90;;;;;;;21.89;95.58;100922.34;108321;1279;23223;-78
2022/08/31 13:30:42;;;;;;;2.80;1.10;;;;;;;21.84;95.13;100922.54;108579;1270;24156;-78
2022/08/31 13:33:56;;;;;;;2.80;0.90;;;;;;;21.84;95.88;100923.81;108624;1265;22014;-82
2022/08/31 13:36:32;;;;;;;3.30;1.10;;;;;;;21.84;97.32;100918.48;108649;1270;22677;-79
2022/08/31 13:39:30;;;;;;;3.30;1.20;;;;;;;21.82;98.99;100921.52;108766;1270;22382;-78
2022/08/31 13:42:20;;;;;;;2.40;0.70;;;;;;;21.79;99.98;100917.51;108935;1270;21995;-80
2022/08/31 13:44:59;;;;;;;2.30;1.20;;;;;;;21.74;99.99;100915.71;108560;1279;23002;-78
2022/08/31 13:47:34;;;;;;;2.40;0.90;;;;;;;21.72;99.99;100922.63;108196;1282;23652;-78
2022/08/31 13:50:34;;;;;;;1.50;0.80;;;;;;;21.74;99.66;100923.97;107999;1282;22267;-78
2022/08/31 13:53:04;;;;;;;2.20;1.10;;;;;;;21.74;97.82;100929.13;108080;1279;23635;-78
2022/08/31 13:55:54;;;;;;;2.90;1.20;;;;;;;21.75;97.98;100927.17;108086;1279;22029;-80
2022/08/31 13:58:31;;;;;;;3.10;1.10;;;;;;;21.76;98.44;100928.77;108155;1285;22104;-79
2022/08/31 14:01:25;;;;;;;3.20;1.40;;;;;;;21.72;97.51;100926.25;107813;1287;22126;-80
2022/08/31 14:04:06;;;;;;;3.00;1.30;;;;;;;21.69;95.35;100923.73;108348;1281;22002;-82
2022/08/31 14:06:51;;;;;;;1.50;0.50;;;;;;;21.67;92.47;100921.85;108708;1276;21988;-81
2022/08/31 14:09:33;;;;;;;;;;;;;;;;;;;;;
2022/08/31 14:12:46;;;;;;;1.80;0.90;;;;;;;21.63;88.09;100925.02;108693;1278;23125;-81
2022/08/31 14:15:47;;;;;;;1.80;1.00;;;;;;;21.62;87.36;100923.12;108608;1279;21983;-84
2022/08/31 14:18:49;;;;;;;7.50;1.80;;;;;;;21.64;87.40;100921.27;108832;1270;22993;-82
2022/08/31 14:21:28;;;;;;;3.50;1.20;;;;;;;21.66;86.32;100915.70;109072;1267;23047;-80
2022/08/31 14:24:07;;;;;;;1.30;0.80;;;;;;;21.72;86.36;100915.77;108910;1268;23149;-78
2022/08/31 14:26:55;;;;;;;1.70;0.90;;;;;;;21.74;86.22;100909.14;108819;1267;23596;-79
2022/08/31 14:29:28;;;;;;;3.50;1.70;;;;;;;21.78;87.88;100912.98;108923;1264;21981;-79
2022/08/31 14:32:07;;;;;;;7.30;3.30;;;;;;;21.84;87.96;100910.92;108785;1270;23018;-79
2022/08/31 14:34:50;;;;;;;3.30;1.60;;;;;;;21.88;87.59;100908.95;108744;1270;22093;-79
2022/08/31 14:37:36;;;;;;;2.00;1.00;;;;;;;21.88;87.85;100909.94;108464;1276;22718;-80
2022/08/31 14:40:12;;;;;;;6.60;1.90;;;;;;;21.89;88.56;100911.36;108477;1274;21989;-80
2022/08/31 14:42:48;;;;;;;3.20;2.10;;;;;;;21.90;90.57;100909.00;108963;1273;22010;-82
2022/08/31 14:45:21;;;;;;;4.60;1.60;;;;;;;21.89;92.28;100909.27;108776;1273;22887;-82
2022/08/31 14:47:54;;;;;;;3.40;1.40;;;;;;;21.89;94.17;100906.70;108945;1273;24325;-83